createdAt,value
2023-02-23T00:04:47.930Z,25.1
2023-02-23T00:09:49.574Z,25.1
2023-02-23T00:14:51.287Z,25.2
2023-02-23T00:19:52.915Z,25.2
2023-02-23T00:24:54.517Z,25.3
2023-02-23T00:29:56.233Z,25.3
2023-02-23T00:34:57.877Z,25.3
2023-02-23T00:39:59.508Z,25.3
2023-02-23T00:45:01.178Z,25.3
2023-02-23T00:50:03.013Z,25.3
2023-02-23T00:55:04.680Z,25.3
2023-02-23T01:00:06.549Z,25.4
2023-02-23T01:05:08.147Z,25.4
2023-02-23T01:10:09.754Z,25.4
2023-02-23T01:15:11.654Z,25.4
2023-02-23T01:20:13.526Z,25.4
2023-02-23T01:25:15.151Z,25.4
2023-02-23T01:30:16.777Z,25.4
2023-02-23T01:35:18.397Z,25.4
2023-02-23T01:40:20.068Z,25.5
2023-02-23T01:45:22.041Z,25.5
2023-02-23T01:50:23.684Z,25.5
2023-02-23T01:55:25.345Z,25.6
2023-02-23T02:00:27.226Z,25.5
2023-02-23T02:05:29.126Z,25.6
2023-02-23T02:10:30.989Z,25.6
2023-02-23T02:15:32.674Z,25.6
2023-02-23T02:20:34.329Z,25.6
2023-02-23T02:25:35.987Z,25.6
2023-02-23T02:30:37.914Z,25.6
2023-02-23T02:35:39.612Z,25.6
2023-02-23T02:40:41.268Z,25.6
2023-02-23T02:45:42.948Z,25.6
2023-02-23T02:50:44.575Z,25.7
2023-02-23T02:55:46.461Z,25.7
2023-02-23T03:00:48.198Z,25.7
2023-02-23T03:05:49.853Z,25.7
2023-02-23T03:10:51.695Z,25.7
2023-02-23T03:15:53.360Z,25.7
2023-02-23T03:20:55.006Z,25.8
2023-02-23T03:25:56.891Z,25.8
2023-02-23T03:30:58.815Z,25.8
2023-02-23T03:36:00.693Z,25.8
2023-02-23T03:41:02.352Z,25.8
2023-02-23T03:46:04.263Z,25.8
2023-02-23T03:51:06.169Z,25.8
2023-02-23T03:56:07.816Z,25.8
2023-02-23T04:01:09.704Z,25.8
2023-02-23T04:06:11.343Z,25.8
2023-02-23T04:11:13.190Z,25.8
2023-02-23T04:16:14.914Z,25.8
2023-02-23T04:21:16.971Z,25.8
2023-02-23T04:26:18.840Z,25.8
2023-02-23T04:31:22.203Z,25.8
2023-02-23T04:36:25.519Z,25.8
2023-02-23T04:41:27.399Z,25.9
2023-02-23T04:46:29.225Z,25.9
2023-02-23T04:51:30.839Z,25.9
2023-02-23T04:56:32.505Z,25.9
2023-02-23T05:01:34.250Z,25.9
2023-02-23T05:06:36.187Z,25.9
2023-02-23T05:11:38.018Z,25.9
2023-02-23T05:16:39.885Z,25.9
2023-02-23T05:21:41.743Z,25.9
2023-02-23T05:26:43.408Z,25.9
2023-02-23T05:31:45.409Z,25.9
2023-02-23T05:36:47.148Z,25.9
2023-02-23T05:41:48.806Z,25.9
2023-02-23T05:46:50.842Z,25.9
2023-02-23T05:51:52.471Z,25.9
2023-02-23T05:56:54.124Z,25.9
2023-02-23T06:01:55.820Z,25.9
2023-02-23T06:06:57.471Z,25.9
2023-02-23T06:11:59.160Z,25.9
2023-02-23T06:17:00.852Z,26
2023-02-23T06:22:02.542Z,26
2023-02-23T06:27:04.229Z,26
2023-02-23T06:32:06.491Z,25.4
2023-02-23T06:37:09.322Z,24.6
2023-02-23T06:42:10.985Z,24.5
2023-02-23T06:47:12.855Z,24.5
2023-02-23T06:52:14.419Z,24.5
2023-02-23T06:57:16.270Z,24.5
2023-02-23T07:02:17.870Z,24.5
2023-02-23T07:07:19.489Z,24.5
2023-02-23T07:12:21.088Z,24.5
2023-02-23T07:17:22.782Z,24.5
2023-02-23T07:22:24.354Z,24.5
2023-02-23T07:27:26.137Z,24.5
2023-02-23T07:32:27.906Z,24.5
2023-02-23T07:37:29.586Z,24.6
2023-02-23T07:42:31.427Z,24.6
2023-02-23T07:47:33.313Z,24.6
2023-02-23T07:52:34.950Z,24.6
2023-02-23T07:57:36.778Z,24.6
2023-02-23T08:02:38.609Z,24.6
2023-02-23T08:07:40.467Z,24.6
2023-02-23T08:12:42.109Z,24.6
2023-02-23T08:17:43.797Z,24.6
2023-02-23T08:22:49.572Z,24.6
2023-02-23T08:27:51.380Z,24.6
2023-02-23T08:32:52.990Z,24.6
2023-02-23T08:37:54.613Z,24.6
2023-02-23T08:42:56.421Z,24.6
2023-02-23T08:47:58.261Z,24.6
2023-02-23T08:52:59.840Z,24.6
2023-02-23T08:58:01.665Z,24.6
2023-02-23T09:03:03.532Z,24.6
2023-02-23T09:08:05.159Z,24.6
2023-02-23T09:13:06.961Z,24.6
2023-02-23T09:18:08.606Z,24.6
2023-02-23T09:23:10.218Z,24.7
2023-02-23T09:28:11.832Z,23.9
2023-02-23T09:33:13.643Z,23.7
2023-02-23T09:38:15.232Z,23.7
2023-02-23T09:43:17.027Z,23.7
2023-02-23T09:48:18.649Z,23.7
2023-02-23T09:53:20.261Z,23.7
2023-02-23T09:58:21.878Z,23.7
2023-02-23T10:03:23.949Z,23.7
2023-02-23T10:08:25.552Z,23.7
2023-02-23T10:13:27.188Z,23.7
2023-02-23T10:18:45.165Z,23.7
2023-02-23T10:23:47.247Z,23.7
2023-02-23T10:28:48.873Z,23.7
2023-02-23T10:33:50.479Z,23.7
2023-02-23T10:38:52.045Z,23.8
2023-02-23T10:43:53.603Z,23.8
2023-02-23T10:48:55.238Z,23.8
2023-02-23T10:53:56.782Z,23.8
2023-02-23T10:58:58.614Z,23.9
2023-02-23T11:04:05.889Z,23.9
2023-02-23T11:09:07.615Z,23.9
2023-02-23T11:14:09.428Z,23.9
2023-02-23T11:19:11.287Z,23.9
2023-02-23T11:24:12.866Z,23.9
2023-02-23T11:29:14.504Z,23.9
2023-02-23T11:34:16.309Z,23.9
2023-02-23T11:39:18.093Z,23.9
2023-02-23T11:44:19.644Z,23.9
2023-02-23T11:49:21.296Z,23.9
2023-02-23T11:54:23.139Z,23.9
2023-02-23T11:59:24.788Z,23.9
2023-02-23T12:04:26.442Z,23.9
2023-02-23T12:09:28.345Z,23.9
2023-02-23T12:14:29.917Z,24
2023-02-23T12:19:31.783Z,24
2023-02-23T12:24:33.372Z,24
2023-02-23T12:29:35.157Z,24
2023-02-23T12:34:36.829Z,24
2023-02-23T12:39:38.623Z,24
2023-02-23T12:44:43.417Z,24.1
2023-02-23T12:49:45.078Z,24.1
2023-02-23T12:54:46.650Z,24.1
2023-02-23T12:59:48.491Z,24.1
2023-02-23T13:04:50.063Z,24.1
2023-02-23T13:09:51.606Z,24.1
2023-02-23T13:14:53.146Z,24.1
2023-02-23T13:19:54.718Z,24.1
2023-02-23T13:24:56.294Z,24.1
2023-02-23T13:29:57.871Z,24.1
2023-02-23T13:34:59.519Z,24.1
2023-02-23T13:40:01.101Z,24.1
2023-02-23T13:45:02.760Z,24.1
2023-02-23T13:50:04.584Z,24.1
2023-02-23T13:55:06.221Z,24.2
2023-02-23T14:00:07.762Z,24.2
2023-02-23T14:05:09.394Z,24.2
2023-02-23T14:10:11.206Z,24.2
2023-02-23T14:15:12.798Z,24.2
2023-02-23T14:20:20.939Z,24.2
2023-02-23T14:25:29.496Z,24.2
2023-02-23T14:30:31.326Z,24.2
2023-02-23T14:35:33.196Z,24.2
2023-02-23T14:40:35.074Z,24.2
2023-02-23T14:45:36.940Z,24.3
2023-02-23T14:50:38.788Z,24.3
2023-02-23T14:55:40.405Z,24.3
2023-02-23T15:00:42.225Z,24.3
2023-02-23T15:05:44.114Z,24.3
2023-02-23T15:10:45.948Z,24.3
2023-02-23T15:15:47.763Z,24.3
2023-02-23T15:20:49.486Z,24.3
2023-02-23T15:25:51.402Z,24.3
2023-02-23T15:30:53.451Z,24.3
2023-02-23T15:35:55.099Z,24.3
2023-02-23T15:40:56.718Z,24.2
2023-02-23T15:45:58.346Z,24.1
2023-02-23T15:51:00.216Z,24.1
2023-02-23T15:56:04.717Z,24.1
2023-02-23T16:01:06.598Z,24.1
2023-02-23T16:06:08.485Z,24.1
2023-02-23T16:11:10.026Z,24.1
2023-02-23T16:16:11.669Z,24.1
2023-02-23T16:21:13.329Z,24.1
2023-02-23T16:26:15.260Z,24.1
2023-02-23T16:31:17.200Z,24.2
2023-02-23T16:36:19.232Z,24.1
2023-02-23T16:41:21.067Z,24.4
2023-02-23T16:46:23.628Z,28.9
2023-02-23T16:51:25.675Z,32.2
2023-02-23T16:56:26.533Z,34.7
2023-02-23T17:01:26.775Z,37.4
2023-02-23T17:06:27.648Z,40.1
2023-02-23T17:11:28.306Z,40.9
2023-02-23T17:16:28.951Z,42.1
2023-02-23T17:21:29.491Z,43.9
2023-02-23T17:26:30.293Z,46.3
2023-02-23T17:31:31.599Z,48.6
2023-02-23T17:36:32.644Z,49.1
2023-02-23T17:41:36.041Z,49.1
2023-02-23T17:46:36.997Z,49.1
2023-02-23T17:51:37.753Z,49.1
2023-02-23T17:56:38.684Z,49.1
2023-02-23T18:01:39.582Z,49.1
2023-02-23T18:06:41.224Z,49
2023-02-23T18:11:42.174Z,48.9
2023-02-23T18:16:43.097Z,48.9
2023-02-23T18:21:44.052Z,48.9
2023-02-23T18:26:44.924Z,48.9
2023-02-23T18:31:46.264Z,48.8
2023-02-23T18:36:47.072Z,48.8
2023-02-23T18:41:48.062Z,48.7
2023-02-23T18:46:49.022Z,48.7
2023-02-23T18:51:49.946Z,48.6
2023-02-23T18:56:50.721Z,48.3
2023-02-23T19:01:51.652Z,48.1
2023-02-23T19:06:52.604Z,48.1
2023-02-23T19:11:53.464Z,48.1
2023-02-23T19:16:54.120Z,48
2023-02-23T19:21:55.013Z,47.9
2023-02-23T19:26:55.867Z,47.9
2023-02-23T19:31:56.946Z,47.9
2023-02-23T19:36:57.872Z,47.9
2023-02-23T19:41:58.766Z,47.8
2023-02-23T19:46:59.461Z,47.7
2023-02-23T19:52:00.081Z,47.7
2023-02-23T19:57:00.730Z,47.7
2023-02-23T20:02:01.602Z,47.7
2023-02-23T20:07:02.306Z,47.6
2023-02-23T20:12:04.389Z,47.6
2023-02-23T20:17:05.074Z,47.6
2023-02-23T20:22:06.133Z,47.5
2023-02-23T20:27:07.013Z,47.2
2023-02-23T20:32:07.785Z,47.2
2023-02-23T20:37:08.649Z,47.1
2023-02-23T20:42:09.493Z,47.1
2023-02-23T20:47:10.039Z,47.1
2023-02-23T20:52:10.644Z,47
2023-02-23T20:57:11.272Z,46.9
2023-02-23T21:02:11.839Z,46.8
2023-02-23T21:07:12.476Z,46.7
2023-02-23T21:12:13.277Z,46.7
2023-02-23T21:17:14.077Z,46.6
2023-02-23T21:22:14.709Z,46.6
2023-02-23T21:27:15.314Z,46.6
2023-02-23T21:32:16.196Z,46.5
2023-02-23T21:37:16.880Z,46.4
2023-02-23T21:42:17.477Z,46.4
2023-02-23T21:47:18.058Z,46.4
2023-02-23T21:52:18.627Z,46.3
2023-02-23T21:57:19.210Z,46.2
2023-02-23T22:02:19.822Z,46.1
2023-02-23T22:07:20.374Z,45.8
2023-02-23T22:12:21.189Z,45.8
2023-02-23T22:17:21.762Z,45.7
2023-02-23T22:22:22.492Z,45.6
2023-02-23T22:27:23.065Z,45.6
2023-02-23T22:32:23.781Z,45.5
2023-02-23T22:37:24.340Z,45.5
2023-02-23T22:42:24.978Z,45.4
2023-02-23T22:47:25.517Z,45.4
2023-02-23T22:52:26.042Z,45.3
2023-02-23T22:57:26.567Z,45.2
2023-02-23T23:02:27.113Z,45.2
2023-02-23T23:07:27.663Z,45.1
2023-02-23T23:12:28.159Z,45.1
2023-02-23T23:17:28.705Z,45
2023-02-23T23:22:32.243Z,45
2023-02-23T23:27:32.956Z,44.9
2023-02-23T23:32:33.576Z,44.9
2023-02-23T23:37:34.200Z,44.8
2023-02-23T23:42:34.977Z,44.7
2023-02-23T23:47:35.498Z,44.7
2023-02-23T23:52:36.003Z,44.7
2023-02-23T23:57:36.515Z,44.6
